West Union, Minnesota
Current Conditions -  °F | °C
As of 12:32 AM on Saturday 29 Nov 2014 (Local Time) from KD39 Reporting Station
Overcast Overcast  
Wind Chill: 10°   Ceiling: 1000
Heat Index: 20°   Visibility: 10mi
Dew Point: 17°   Wind: 9mph
Humidity: 89%   Direction: 120°ESE
Pressure: 29.58"   Gusts: NA
Location:  45.8°N, 95.08°W
Report Text: KD39 290632Z AUTO 12008KT 10SM OVC010 M07/M08 A2958 RMK AO2 T10661081
Loading
Personal Weather Stations






























Interactive Weather Map New forecast layout! Learn more

10-Day Weather Forecast

Advertisements
Track Severe Weather on mobile